Time;durP1;ratioP1;P1;durP2;ratioP2;P2;SDS_P1;SDS_P2;PMS_P1;PMS_P2;Temp;Humidity;BMP_temperature;BMP_pressure;BME280_temperature;BME280_humidity;BME280_pressure;Samples;Min_cycle;Max_cycle;Signal;HPM_P1;HPM_P2
2021/05/01 00:00:55;;;;;;;6.15;3.65;;;;;;;;;;2089324;28;20037;-66
2021/05/01 00:01:56;;;;;;;7.93;4.38;;;;;;;;;;2089343;28;20029;-68
2021/05/01 00:02:56;;;;;;;9.48;4.10;;;;;;;;;;2089230;28;20480;-68
2021/05/01 00:03:57;;;;;;;6.30;3.20;;;;;;;;;;2088936;28;20160;-67
2021/05/01 00:04:57;;;;;;;7.00;3.78;;;;;;;;;;2089154;28;20029;-67
2021/05/01 00:05:57;;;;;;;7.60;3.65;;;;;;;;;;2089317;28;20074;-68
2021/05/01 00:06:58;;;;;;;7.32;3.97;;;;;;;;;;2089107;28;20037;-69
2021/05/01 00:07:58;;;;;;;7.68;3.80;;;;;;;;;;2089202;28;20032;-67
2021/05/01 00:08:58;;;;;;;6.20;3.45;;;;;;;;;;2089184;28;20029;-69
2021/05/01 00:09:59;;;;;;;10.13;3.40;;;;;;;;;;2089220;28;20443;-65
2021/05/01 00:11:01;;;;;;;6.68;3.55;;;;;;;;;;2096489;28;20114;-67
2021/05/01 00:12:02;;;;;;;6.03;3.53;;;;;;;;;;2096622;28;20033;-68
2021/05/01 00:13:02;;;;;;;6.45;3.53;;;;;;;;;;2089176;28;20049;-67
2021/05/01 00:14:05;;;;;;;5.80;3.47;;;;;;;;;;2089171;28;20037;-69
2021/05/01 00:15:06;;;;;;;9.25;4.25;;;;;;;;;;2089145;28;20072;-68
2021/05/01 00:16:07;;;;;;;9.05;4.35;;;;;;;;;;2089216;28;20048;-67
2021/05/01 00:17:07;;;;;;;10.10;4.97;;;;;;;;;;2089129;28;20502;-68
2021/05/01 00:18:07;;;;;;;9.25;5.10;;;;;;;;;;2088923;28;20033;-67
2021/05/01 00:19:08;;;;;;;8.20;4.57;;;;;;;;;;2089084;28;20045;-66
2021/05/01 00:20:09;;;;;;;9.50;4.82;;;;;;;;;;2089067;28;20471;-66
2021/05/01 00:21:09;;;;;;;9.85;4.78;;;;;;;;;;2089099;28;20017;-66
2021/05/01 00:22:10;;;;;;;8.73;4.50;;;;;;;;;;2089202;28;20043;-66
2021/05/01 00:23:10;;;;;;;10.85;4.60;;;;;;;;;;2089077;28;20029;-66
2021/05/01 00:24:10;;;;;;;11.98;4.38;;;;;;;;;;2089180;28;20045;-66
2021/05/01 00:25:11;;;;;;;9.27;4.57;;;;;;;;;;2088965;28;20556;-66
2021/05/01 00:26:11;;;;;;;9.68;5.28;;;;;;;;;;2096520;28;20025;-66
2021/05/01 00:27:12;;;;;;;11.70;4.10;;;;;;;;;;2096382;28;20037;-66
2021/05/01 00:28:12;;;;;;;11.25;4.43;;;;;;;;;;2088961;28;20056;-66
2021/05/01 00:29:12;;;;;;;8.00;3.88;;;;;;;;;;2088870;28;20013;-66
2021/05/01 00:30:13;;;;;;;10.65;4.85;;;;;;;;;;2088722;28;20032;-66
2021/05/01 00:31:13;;;;;;;8.05;4.32;;;;;;;;;;2089037;28;20040;-66
2021/05/01 00:32:14;;;;;;;8.38;4.70;;;;;;;;;;2089161;28;20017;-66
2021/05/01 00:33:14;;;;;;;7.63;4.15;;;;;;;;;;2088702;28;20029;-66
2021/05/01 00:34:14;;;;;;;8.32;4.20;;;;;;;;;;2088828;28;20055;-66
2021/05/01 00:35:15;;;;;;;6.30;3.88;;;;;;;;;;2088873;28;20032;-66
2021/05/01 00:36:16;;;;;;;7.95;4.05;;;;;;;;;;2089152;28;20747;-66
2021/05/01 00:37:16;;;;;;;7.95;4.35;;;;;;;;;;2096585;28;20039;-66
2021/05/01 00:38:16;;;;;;;8.30;4.13;;;;;;;;;;2096791;28;20037;-66
2021/05/01 00:39:17;;;;;;;9.38;4.20;;;;;;;;;;2088962;28;20021;-66
2021/05/01 00:40:17;;;;;;;9.85;4.13;;;;;;;;;;2088738;28;20052;-66
2021/05/01 00:41:17;;;;;;;11.32;4.22;;;;;;;;;;2088976;28;20068;-66
2021/05/01 00:42:18;;;;;;;7.63;4.15;;;;;;;;;;2096727;28;20111;-67
2021/05/01 00:43:18;;;;;;;9.07;4.00;;;;;;;;;;2096582;28;20033;-66
2021/05/01 00:44:18;;;;;;;6.30;3.75;;;;;;;;;;2088392;28;20040;-66
2021/05/01 00:45:19;;;;;;;6.18;3.75;;;;;;;;;;2088389;28;20037;-66
2021/05/01 00:46:20;;;;;;;7.70;3.65;;;;;;;;;;2089102;28;20037;-66
2021/05/01 00:47:20;;;;;;;10.90;4.07;;;;;;;;;;2088906;28;20665;-66
2021/05/01 00:48:21;;;;;;;7.95;4.00;;;;;;;;;;2088847;28;20025;-66
2021/05/01 00:49:21;;;;;;;9.05;4.07;;;;;;;;;;2088752;28;20557;-66
2021/05/01 00:50:22;;;;;;;6.07;3.30;;;;;;;;;;2089065;28;20070;-66
2021/05/01 00:51:22;;;;;;;7.60;3.50;;;;;;;;;;2088908;28;20411;-66
2021/05/01 00:52:23;;;;;;;6.82;4.05;;;;;;;;;;2089230;28;20112;-66
2021/05/01 00:53:23;;;;;;;7.38;4.15;;;;;;;;;;2088963;28;20502;-66
2021/05/01 00:54:24;;;;;;;6.88;3.85;;;;;;;;;;2089005;28;20017;-66
2021/05/01 00:55:24;;;;;;;8.07;3.75;;;;;;;;;;2088632;28;20040;-66
2021/05/01 00:56:24;;;;;;;8.20;3.80;;;;;;;;;;2088935;28;20082;-66
2021/05/01 00:57:25;;;;;;;6.43;3.47;;;;;;;;;;2089045;28;20037;-66
2021/05/01 00:58:26;;;;;;;6.03;3.53;;;;;;;;;;2088960;28;20094;-66
2021/05/01 00:59:26;;;;;;;9.60;4.00;;;;;;;;;;2088969;28;20029;-66
2021/05/01 01:01:30;;;;;;;8.30;3.90;;;;;;;;;;2089057;28;20380;-66
2021/05/01 01:02:30;;;;;;;6.80;3.80;;;;;;;;;;2088738;28;20032;-66
2021/05/01 01:03:31;;;;;;;6.03;3.83;;;;;;;;;;2089010;28;20025;-66
2021/05/01 01:04:31;;;;;;;8.60;3.53;;;;;;;;;;2088779;28;20033;-66
2021/05/01 01:05:32;;;;;;;6.95;3.50;;;;;;;;;;2088850;28;20386;-66
2021/05/01 01:06:32;;;;;;;5.72;3.55;;;;;;;;;;2088993;28;20091;-66
2021/05/01 01:07:32;;;;;;;6.43;3.58;;;;;;;;;;2088936;28;20072;-66
2021/05/01 01:08:33;;;;;;;6.88;3.33;;;;;;;;;;2088931;28;20036;-66
2021/05/01 01:09:33;;;;;;;7.07;3.97;;;;;;;;;;2088906;28;20029;-66
2021/05/01 01:10:34;;;;;;;6.40;3.90;;;;;;;;;;2088690;28;20064;-66
2021/05/01 01:11:35;;;;;;;6.15;3.58;;;;;;;;;;2088922;28;20089;-66
2021/05/01 01:12:35;;;;;;;8.30;4.13;;;;;;;;;;2089001;28;20029;-66
2021/05/01 01:13:36;;;;;;;6.93;3.60;;;;;;;;;;2088772;28;20040;-66
2021/05/01 01:14:37;;;;;;;7.82;3.50;;;;;;;;;;2088911;28;20036;-66
2021/05/01 01:15:38;;;;;;;7.22;3.63;;;;;;;;;;2088283;28;20494;-66
2021/05/01 01:16:39;;;;;;;6.90;3.78;;;;;;;;;;2088252;28;20049;-66
2021/05/01 01:17:40;;;;;;;5.57;3.33;;;;;;;;;;2088563;28;20032;-66
2021/05/01 01:18:40;;;;;;;5.93;3.28;;;;;;;;;;2088955;28;20025;-66
2021/05/01 01:19:40;;;;;;;7.38;3.63;;;;;;;;;;2088650;28;20037;-66
2021/05/01 01:20:41;;;;;;;6.13;3.30;;;;;;;;;;2088897;28;20029;-66
2021/05/01 01:21:42;;;;;;;7.75;3.83;;;;;;;;;;2088901;28;20464;-66
2021/05/01 01:22:42;;;;;;;5.88;3.22;;;;;;;;;;2088839;28;20033;-66
2021/05/01 01:23:43;;;;;;;5.50;3.38;;;;;;;;;;2088985;28;20048;-67
2021/05/01 01:24:43;;;;;;;5.80;3.25;;;;;;;;;;2088610;28;20479;-66
2021/05/01 01:25:43;;;;;;;4.75;3.30;;;;;;;;;;2088925;28;20048;-66
2021/05/01 01:26:44;;;;;;;6.57;3.30;;;;;;;;;;2088800;28;20025;-66
2021/05/01 01:27:45;;;;;;;6.63;3.60;;;;;;;;;;2088850;28;20498;-66
2021/05/01 01:28:46;;;;;;;6.70;3.35;;;;;;;;;;2088918;28;20499;-66
2021/05/01 01:29:48;;;;;;;6.45;3.28;;;;;;;;;;2088969;28;20086;-67
2021/05/01 01:30:48;;;;;;;7.03;3.58;;;;;;;;;;2088872;28;20033;-66
2021/05/01 01:31:49;;;;;;;4.40;3.03;;;;;;;;;;2088832;28;20556;-66
2021/05/01 01:32:49;;;;;;;6.25;3.53;;;;;;;;;;2088519;28;20055;-66
2021/05/01 01:33:49;;;;;;;5.30;3.33;;;;;;;;;;2088920;28;20025;-66
2021/05/01 01:34:50;;;;;;;7.57;4.07;;;;;;;;;;2087937;28;20507;-66
2021/05/01 01:35:50;;;;;;;6.13;3.17;;;;;;;;;;2088031;28;20533;-66
2021/05/01 01:36:50;;;;;;;6.20;3.38;;;;;;;;;;2088725;28;20049;-67
2021/05/01 01:37:51;;;;;;;5.90;3.03;;;;;;;;;;2089035;28;20128;-67
2021/05/01 01:38:51;;;;;;;5.47;3.33;;;;;;;;;;2088836;28;20036;-67
2021/05/01 01:39:52;;;;;;;5.03;3.15;;;;;;;;;;2089700;28;20051;-66
2021/05/01 01:40:52;;;;;;;5.65;3.10;;;;;;;;;;2089617;28;20115;-66
2021/05/01 01:41:53;;;;;;;7.03;3.50;;;;;;;;;;2089751;28;20116;-66
2021/05/01 01:42:53;;;;;;;5.20;3.22;;;;;;;;;;2097904;28;20031;-66
2021/05/01 01:43:53;;;;;;;6.78;3.30;;;;;;;;;;2090417;28;20445;-66
2021/05/01 01:44:54;;;;;;;6.53;3.40;;;;;;;;;;2090387;28;20060;-66
2021/05/01 01:45:54;;;;;;;6.95;3.42;;;;;;;;;;2090334;28;20532;-67
2021/05/01 01:46:54;;;;;;;4.47;3.08;;;;;;;;;;2090087;28;20044;-66
2021/05/01 01:47:56;;;;;;;6.25;3.58;;;;;;;;;;2090277;28;20063;-66
2021/05/01 01:48:56;;;;;;;5.95;3.30;;;;;;;;;;2090226;28;20025;-66
2021/05/01 01:49:56;;;;;;;4.68;2.90;;;;;;;;;;2090135;28;20028;-66
2021/05/01 01:50:56;;;;;;;5.47;3.38;;;;;;;;;;2090330;28;20029;-67
2021/05/01 01:51:57;;;;;;;6.20;3.13;;;;;;;;;;2090279;28;20116;-66
2021/05/01 01:52:57;;;;;;;7.70;3.63;;;;;;;;;;2097871;28;20028;-67
2021/05/01 01:53:57;;;;;;;6.90;3.20;;;;;;;;;;2097889;28;20016;-66
2021/05/01 01:54:58;;;;;;;5.88;3.53;;;;;;;;;;2090113;28;20431;-66
2021/05/01 01:55:58;;;;;;;5.45;3.13;;;;;;;;;;2090344;28;20040;-66
2021/05/01 01:56:59;;;;;;;6.13;3.47;;;;;;;;;;2090185;28;20033;-67
2021/05/01 01:58:00;;;;;;;6.93;3.13;;;;;;;;;;2090250;28;20067;-67
2021/05/01 01:59:00;;;;;;;7.32;3.25;;;;;;;;;;2090239;28;20029;-67
2021/05/01 02:00:01;;;;;;;5.60;3.10;;;;;;;;;;2090282;28;20112;-67
2021/05/01 02:01:01;;;;;;;5.50;3.30;;;;;;;;;;2090259;28;20450;-66
2021/05/01 02:02:02;;;;;;;5.50;3.20;;;;;;;;;;2089856;28;20399;-66
2021/05/01 02:03:03;;;;;;;5.30;3.28;;;;;;;;;;2090191;28;20123;-66
2021/05/01 02:04:03;;;;;;;5.95;3.55;;;;;;;;;;2089377;28;20059;-66
2021/05/01 02:05:04;;;;;;;6.80;3.47;;;;;;;;;;2089587;28;20052;-66
2021/05/01 02:06:05;;;;;;;4.97;3.08;;;;;;;;;;2097771;28;20594;-66
2021/05/01 02:07:05;;;;;;;5.55;3.53;;;;;;;;;;2091086;28;20538;-67
2021/05/01 02:08:06;;;;;;;5.80;3.38;;;;;;;;;;2090328;28;20025;-66
2021/05/01 02:09:06;;;;;;;7.28;3.38;;;;;;;;;;2089785;28;20076;-66
2021/05/01 02:10:07;;;;;;;6.80;3.65;;;;;;;;;;2090229;28;20027;-67
2021/05/01 02:11:07;;;;;;;4.10;2.78;;;;;;;;;;2089987;28;20527;-66
2021/05/01 02:12:08;;;;;;;5.50;2.83;;;;;;;;;;2090203;28;20029;-67
2021/05/01 02:13:08;;;;;;;5.30;3.17;;;;;;;;;;2090026;28;20053;-67
2021/05/01 02:14:09;;;;;;;6.00;3.10;;;;;;;;;;2090190;28;20040;-66
2021/05/01 02:15:13;;;;;;;6.90;3.33;;;;;;;;;;2089962;28;20400;-66
2021/05/01 02:16:14;;;;;;;6.55;3.45;;;;;;;;;;2090198;28;20099;-66
2021/05/01 02:17:14;;;;;;;6.57;3.70;;;;;;;;;;2089586;28;20446;-65
2021/05/01 02:18:14;;;;;;;9.38;3.35;;;;;;;;;;2090226;28;20025;-65
2021/05/01 02:19:15;;;;;;;5.78;3.22;;;;;;;;;;2089742;28;20571;-65
2021/05/01 02:20:16;;;;;;;5.78;3.33;;;;;;;;;;2090271;28;20040;-66
2021/05/01 02:21:17;;;;;;;5.95;3.65;;;;;;;;;;2090057;28;20090;-65
2021/05/01 02:22:17;;;;;;;5.70;3.17;;;;;;;;;;2090074;28;20499;-66
2021/05/01 02:23:17;;;;;;;6.28;3.35;;;;;;;;;;2090109;28;20116;-65
2021/05/01 02:24:17;;;;;;;7.53;3.17;;;;;;;;;;2089810;28;20467;-65
2021/05/01 02:25:18;;;;;;;5.55;3.20;;;;;;;;;;2090008;28;20500;-65
2021/05/01 02:26:18;;;;;;;5.60;3.15;;;;;;;;;;2090131;28;20040;-66
2021/05/01 02:27:19;;;;;;;6.68;3.75;;;;;;;;;;2090019;28;20406;-66
2021/05/01 02:28:19;;;;;;;5.65;3.63;;;;;;;;;;2090054;28;20537;-65
2021/05/01 02:29:20;;;;;;;6.20;3.50;;;;;;;;;;2089859;28;20033;-65
2021/05/01 02:30:21;;;;;;;4.53;3.10;;;;;;;;;;2090192;28;20040;-65
2021/05/01 02:31:22;;;;;;;5.05;2.92;;;;;;;;;;2089624;28;20025;-65
2021/05/01 02:32:22;;;;;;;5.40;2.90;;;;;;;;;;2089955;28;20041;-65
2021/05/01 02:33:23;;;;;;;4.82;2.97;;;;;;;;;;2089887;28;20032;-65
2021/05/01 02:34:23;;;;;;;5.40;3.28;;;;;;;;;;2089871;28;20379;-65
2021/05/01 02:35:25;;;;;;;5.93;3.30;;;;;;;;;;2089847;28;20039;-65
2021/05/01 02:36:25;;;;;;;5.80;3.20;;;;;;;;;;2089953;28;20068;-65
2021/05/01 02:37:25;;;;;;;4.72;2.95;;;;;;;;;;2089902;28;20044;-67
2021/05/01 02:38:26;;;;;;;5.90;3.25;;;;;;;;;;2089979;28;20056;-67
2021/05/01 02:39:26;;;;;;;9.63;3.60;;;;;;;;;;2089650;28;20182;-66
2021/05/01 02:40:33;;;;;;;6.63;3.40;;;;;;;;;;2090004;28;20036;-66
2021/05/01 02:41:34;;;;;;;7.97;3.30;;;;;;;;;;2089820;28;20052;-66
2021/05/01 02:42:34;;;;;;;6.53;3.50;;;;;;;;;;2089838;28;20033;-65
2021/05/01 02:43:35;;;;;;;6.20;3.08;;;;;;;;;;2089955;28;20037;-65
2021/05/01 02:44:35;;;;;;;6.65;3.42;;;;;;;;;;2089943;28;20124;-65
2021/05/01 02:45:36;;;;;;;4.88;3.42;;;;;;;;;;2089914;28;20083;-65
2021/05/01 02:46:36;;;;;;;5.97;3.08;;;;;;;;;;2088912;28;20029;-65
2021/05/01 02:47:37;;;;;;;6.10;3.42;;;;;;;;;;2089194;28;20041;-65
2021/05/01 02:48:37;;;;;;;5.68;3.30;;;;;;;;;;2097513;28;20029;-66
2021/05/01 02:49:38;;;;;;;5.15;3.28;;;;;;;;;;2089581;28;20029;-66
2021/05/01 02:50:38;;;;;;;6.18;3.08;;;;;;;;;;2089664;28;20116;-66
2021/05/01 02:51:39;;;;;;;5.43;3.40;;;;;;;;;;2089705;28;20029;-66
2021/05/01 02:52:39;;;;;;;6.60;3.75;;;;;;;;;;2089852;28;20040;-66
2021/05/01 02:53:39;;;;;;;5.57;3.40;;;;;;;;;;2089530;28;20068;-66
2021/05/01 02:54:40;;;;;;;7.60;3.65;;;;;;;;;;2089779;28;20064;-66
2021/05/01 02:55:40;;;;;;;6.22;3.38;;;;;;;;;;2089765;28;20035;-66
2021/05/01 02:56:40;;;;;;;4.57;3.20;;;;;;;;;;2089721;28;20045;-66
2021/05/01 02:57:41;;;;;;;6.80;3.10;;;;;;;;;;2089783;28;20064;-66
2021/05/01 02:58:41;;;;;;;5.25;3.10;;;;;;;;;;2089733;28;20119;-66
2021/05/01 02:59:41;;;;;;;6.30;3.40;;;;;;;;;;2089837;28;20052;-66
2021/05/01 03:00:42;;;;;;;4.35;3.08;;;;;;;;;;2089743;28;20095;-67
2021/05/01 03:01:42;;;;;;;5.28;3.50;;;;;;;;;;2089552;28;20159;-66
2021/05/01 03:02:43;;;;;;;5.57;3.17;;;;;;;;;;2089735;28;20045;-66
2021/05/01 03:03:46;;;;;;;5.10;2.92;;;;;;;;;;2083150;28;20048;-66
2021/05/01 03:04:46;;;;;;;5.20;3.00;;;;;;;;;;2089482;28;20025;-66
2021/05/01 03:05:47;;;;;;;5.45;3.42;;;;;;;;;;2089868;28;20403;-66
2021/05/01 03:06:47;;;;;;;5.63;3.35;;;;;;;;;;2089682;28;20024;-66
2021/05/01 03:07:48;;;;;;;6.35;3.30;;;;;;;;;;2089649;28;20079;-65
2021/05/01 03:08:48;;;;;;;6.28;3.13;;;;;;;;;;2089403;28;20047;-65
2021/05/01 03:09:49;;;;;;;5.35;3.30;;;;;;;;;;2089823;28;20081;-65
2021/05/01 03:10:49;;;;;;;6.15;3.60;;;;;;;;;;2089687;28;20033;-65
2021/05/01 03:11:49;;;;;;;6.28;3.55;;;;;;;;;;2089657;28;20497;-66
2021/05/01 03:12:50;;;;;;;5.68;3.22;;;;;;;;;;2089645;28;20040;-65
2021/05/01 03:13:50;;;;;;;5.50;3.00;;;;;;;;;;2089700;28;20128;-65
2021/05/01 03:14:50;;;;;;;6.50;2.88;;;;;;;;;;2089708;28;20017;-65
2021/05/01 03:15:51;;;;;;;5.50;3.22;;;;;;;;;;2089404;28;20493;-65
2021/05/01 03:16:54;;;;;;;5.38;3.40;;;;;;;;;;2082963;28;20496;-66
2021/05/01 03:17:56;;;;;;;5.35;3.30;;;;;;;;;;2089631;28;20049;-65
2021/05/01 03:18:56;;;;;;;5.90;3.50;;;;;;;;;;2089744;28;20102;-66
2021/05/01 03:19:57;;;;;;;5.47;3.58;;;;;;;;;;2089442;28;20479;-65
2021/05/01 03:20:57;;;;;;;4.05;2.70;;;;;;;;;;2089654;28;20404;-65
2021/05/01 03:21:57;;;;;;;4.97;2.88;;;;;;;;;;2089654;28;20507;-65
2021/05/01 03:22:58;;;;;;;5.18;3.05;;;;;;;;;;2097015;28;20020;-65
2021/05/01 03:23:59;;;;;;;5.25;3.00;;;;;;;;;;2097138;28;20046;-64
2021/05/01 03:25:00;;;;;;;7.20;3.22;;;;;;;;;;2089504;28;20017;-64
2021/05/01 03:26:00;;;;;;;5.53;3.10;;;;;;;;;;2089547;28;20025;-66
2021/05/01 03:27:00;;;;;;;5.20;3.20;;;;;;;;;;2089595;28;20040;-66
2021/05/01 03:28:01;;;;;;;5.57;2.97;;;;;;;;;;2089567;28;20396;-64
2021/05/01 03:29:01;;;;;;;8.80;3.70;;;;;;;;;;2088852;28;20515;-66
2021/05/01 03:30:03;;;;;;;4.60;2.78;;;;;;;;;;2088898;28;20494;-65
2021/05/01 03:31:03;;;;;;;5.50;3.22;;;;;;;;;;2089197;28;20526;-67
2021/05/01 03:32:04;;;;;;;5.00;3.38;;;;;;;;;;2089520;28;20131;-66
2021/05/01 03:33:04;;;;;;;5.90;3.25;;;;;;;;;;2089436;28;20029;-66
2021/05/01 03:34:04;;;;;;;6.03;3.40;;;;;;;;;;2089155;28;20094;-64
2021/05/01 03:35:06;;;;;;;5.80;3.35;;;;;;;;;;2089549;28;20048;-66
2021/05/01 03:36:06;;;;;;;4.55;2.90;;;;;;;;;;2089341;28;20076;-65
2021/05/01 03:37:06;;;;;;;5.85;3.30;;;;;;;;;;2089569;28;20479;-66
2021/05/01 03:38:07;;;;;;;6.35;2.80;;;;;;;;;;2089101;28;20037;-66
2021/05/01 03:39:07;;;;;;;6.65;3.35;;;;;;;;;;2089467;28;20502;-66
2021/05/01 03:40:08;;;;;;;6.18;3.30;;;;;;;;;;2089461;28;20442;-66
2021/05/01 03:41:09;;;;;;;6.70;3.58;;;;;;;;;;2089448;28;20104;-66
2021/05/01 03:42:09;;;;;;;4.50;2.83;;;;;;;;;;2089284;28;20044;-66
2021/05/01 03:43:10;;;;;;;6.18;3.70;;;;;;;;;;2089508;28;20111;-66
2021/05/01 03:44:11;;;;;;;4.68;2.75;;;;;;;;;;2089446;28;20468;-64
2021/05/01 03:45:11;;;;;;;5.85;3.75;;;;;;;;;;2089178;28;20025;-67
2021/05/01 03:46:12;;;;;;;4.65;3.17;;;;;;;;;;2089405;28;20024;-65
2021/05/01 03:47:12;;;;;;;6.32;3.33;;;;;;;;;;2089280;28;20032;-66
2021/05/01 03:48:12;;;;;;;5.20;3.40;;;;;;;;;;2089428;28;20098;-64
2021/05/01 03:49:13;;;;;;;5.78;3.30;;;;;;;;;;2089156;28;20051;-67
2021/05/01 03:50:13;;;;;;;5.72;3.60;;;;;;;;;;2089396;28;20033;-67
2021/05/01 03:51:13;;;;;;;4.97;3.00;;;;;;;;;;2089215;28;20025;-67
2021/05/01 03:52:14;;;;;;;5.40;3.35;;;;;;;;;;2089458;28;20636;-67
2021/05/01 03:53:14;;;;;;;5.38;3.30;;;;;;;;;;2088937;28;20051;-67
2021/05/01 03:54:15;;;;;;;4.88;3.17;;;;;;;;;;2089443;28;20062;-68
2021/05/01 03:55:15;;;;;;;5.97;3.60;;;;;;;;;;2089223;28;20067;-67
2021/05/01 03:56:15;;;;;;;5.85;3.65;;;;;;;;;;2082831;28;20104;-67
2021/05/01 03:57:16;;;;;;;5.65;3.28;;;;;;;;;;2089244;28;20041;-68
2021/05/01 03:58:16;;;;;;;4.95;3.15;;;;;;;;;;2089411;28;20049;-68
2021/05/01 03:59:16;;;;;;;5.28;3.47;;;;;;;;;;2089301;28;20021;-65
2021/05/01 04:00:18;;;;;;;6.50;3.47;;;;;;;;;;2089125;28;20484;-67
2021/05/01 04:01:18;;;;;;;5.55;3.13;;;;;;;;;;2088475;28;20385;-66
2021/05/01 04:02:18;;;;;;;6.20;3.50;;;;;;;;;;2088285;28;20084;-67
2021/05/01 04:03:18;;;;;;;6.75;3.55;;;;;;;;;;2089024;28;20480;-67
2021/05/01 04:04:19;;;;;;;7.40;3.47;;;;;;;;;;2089064;28;20041;-67
2021/05/01 04:05:20;;;;;;;8.13;3.20;;;;;;;;;;2089163;28;20048;-67
2021/05/01 04:06:20;;;;;;;7.05;3.50;;;;;;;;;;2089306;28;20068;-66
2021/05/01 04:07:21;;;;;;;6.13;3.80;;;;;;;;;;2096675;28;20032;-67
2021/05/01 04:08:21;;;;;;;6.90;3.58;;;;;;;;;;2096691;28;20024;-68
2021/05/01 04:09:22;;;;;;;4.72;3.40;;;;;;;;;;2088977;28;20037;-67
2021/05/01 04:10:22;;;;;;;5.47;3.03;;;;;;;;;;2089303;28;20491;-66
2021/05/01 04:11:23;;;;;;;6.78;3.67;;;;;;;;;;2089159;28;20479;-67
2021/05/01 04:12:23;;;;;;;5.70;3.58;;;;;;;;;;2089292;28;20032;-66
2021/05/01 04:13:23;;;;;;;6.82;3.13;;;;;;;;;;2088977;28;20112;-66
2021/05/01 04:14:24;;;;;;;5.30;3.30;;;;;;;;;;2089296;28;20021;-67
2021/05/01 04:15:24;;;;;;;6.45;3.28;;;;;;;;;;2088895;28;20048;-65
2021/05/01 04:16:25;;;;;;;5.00;3.30;;;;;;;;;;2089014;28;20057;-64
2021/05/01 04:17:25;;;;;;;5.18;3.28;;;;;;;;;;2088988;28;20043;-67
2021/05/01 04:18:26;;;;;;;5.25;3.22;;;;;;;;;;2088921;28;20025;-67
2021/05/01 04:19:26;;;;;;;6.82;3.13;;;;;;;;;;2088924;28;20083;-66
2021/05/01 04:20:26;;;;;;;4.80;3.13;;;;;;;;;;2089158;28;20106;-66
2021/05/01 04:21:27;;;;;;;5.47;3.60;;;;;;;;;;2089194;28;20537;-66
2021/05/01 04:22:27;;;;;;;5.03;3.63;;;;;;;;;;2088865;28;20499;-66
2021/05/01 04:23:27;;;;;;;5.75;3.63;;;;;;;;;;2089091;28;20033;-66
2021/05/01 04:24:28;;;;;;;8.57;3.30;;;;;;;;;;2089124;28;20555;-67
2021/05/01 04:25:28;;;;;;;6.18;3.72;;;;;;;;;;2089135;28;20029;-67
2021/05/01 04:26:29;;;;;;;6.13;3.65;;;;;;;;;;2089118;28;20116;-67
2021/05/01 04:27:30;;;;;;;6.60;3.65;;;;;;;;;;2089120;28;20036;-66
2021/05/01 04:28:30;;;;;;;8.82;3.42;;;;;;;;;;2089247;28;20464;-67
2021/05/01 04:29:30;;;;;;;5.97;3.63;;;;;;;;;;2089103;28;20025;-67
2021/05/01 04:30:31;;;;;;;5.43;3.30;;;;;;;;;;2088883;28;20112;-68
2021/05/01 04:31:32;;;;;;;5.35;3.28;;;;;;;;;;2088931;28;20087;-67
2021/05/01 04:32:32;;;;;;;5.82;2.90;;;;;;;;;;2089108;28;20028;-67
2021/05/01 04:33:33;;;;;;;6.28;3.70;;;;;;;;;;2089093;28;20091;-67
2021/05/01 04:34:33;;;;;;;4.88;3.15;;;;;;;;;;2088822;28;20487;-67
2021/05/01 04:35:33;;;;;;;4.57;3.30;;;;;;;;;;2088852;28;20045;-68
2021/05/01 04:36:34;;;;;;;5.03;3.60;;;;;;;;;;2088968;28;20095;-67
2021/05/01 04:37:34;;;;;;;5.22;3.00;;;;;;;;;;2088770;28;20029;-69
2021/05/01 04:38:34;;;;;;;6.10;3.40;;;;;;;;;;2089144;28;20031;-69
2021/05/01 04:39:35;;;;;;;5.13;3.47;;;;;;;;;;2089010;28;20460;-69
2021/05/01 04:40:35;;;;;;;6.10;3.30;;;;;;;;;;2089114;28;20365;-69
2021/05/01 04:41:35;;;;;;;4.68;3.33;;;;;;;;;;2089109;28;20028;-68
2021/05/01 04:42:40;;;;;;;7.07;3.90;;;;;;;;;;2089073;28;20500;-69
2021/05/01 04:43:42;;;;;;;4.35;2.88;;;;;;;;;;2089025;28;20105;-69
2021/05/01 04:44:43;;;;;;;4.47;3.22;;;;;;;;;;2088622;28;20078;-68
2021/05/01 04:45:43;;;;;;;6.20;3.42;;;;;;;;;;2089122;28;20037;-69
2021/05/01 04:46:43;;;;;;;7.22;3.45;;;;;;;;;;2089082;28;20071;-69
2021/05/01 04:47:44;;;;;;;5.13;3.22;;;;;;;;;;2096653;28;20103;-65
2021/05/01 04:48:44;;;;;;;4.55;3.03;;;;;;;;;;2088286;28;20500;-65
2021/05/01 04:49:45;;;;;;;5.35;3.30;;;;;;;;;;2088280;28;20120;-66
2021/05/01 04:50:49;;;;;;;5.38;2.90;;;;;;;;;;2089041;28;20571;-66
2021/05/01 04:51:50;;;;;;;4.95;3.08;;;;;;;;;;2088807;28;20123;-67
2021/05/01 04:52:50;;;;;;;5.15;3.42;;;;;;;;;;2088859;28;20017;-66
2021/05/01 04:53:50;;;;;;;5.97;3.25;;;;;;;;;;2089058;28;20029;-67
2021/05/01 04:54:54;;;;;;;4.82;2.85;;;;;;;;;;2089035;28;20052;-66
2021/05/01 04:55:54;;;;;;;5.32;3.17;;;;;;;;;;2089046;28;20032;-66
2021/05/01 04:56:54;;;;;;;6.18;2.97;;;;;;;;;;2088871;28;20495;-66
2021/05/01 04:57:55;;;;;;;4.75;2.92;;;;;;;;;;2089016;28;20112;-66
2021/05/01 04:58:55;;;;;;;4.82;3.25;;;;;;;;;;2089018;28;20426;-66
2021/05/01 04:59:56;;;;;;;5.72;3.45;;;;;;;;;;2088795;28;20082;-67
2021/05/01 05:00:56;;;;;;;5.45;3.15;;;;;;;;;;2088850;28;20589;-67
2021/05/01 05:01:57;;;;;;;4.50;2.70;;;;;;;;;;2089051;28;20475;-66
2021/05/01 05:02:57;;;;;;;4.50;3.08;;;;;;;;;;2088925;28;20102;-67
2021/05/01 05:03:57;;;;;;;4.72;2.80;;;;;;;;;;2089008;28;20044;-67
2021/05/01 05:04:58;;;;;;;6.18;3.10;;;;;;;;;;2088735;28;20065;-68
2021/05/01 05:05:58;;;;;;;4.53;2.88;;;;;;;;;;2088883;28;20107;-65
2021/05/01 05:06:58;;;;;;;4.75;3.17;;;;;;;;;;2096136;28;20075;-66
2021/05/01 05:07:59;;;;;;;7.05;2.97;;;;;;;;;;2096633;28;20501;-65
2021/05/01 05:09:00;;;;;;;6.15;3.20;;;;;;;;;;2088974;28;20463;-66
2021/05/01 05:10:00;;;;;;;4.95;3.10;;;;;;;;;;2088876;28;20467;-68
2021/05/01 05:11:01;;;;;;;5.13;2.88;;;;;;;;;;2088927;28;20079;-66
2021/05/01 05:12:01;;;;;;;4.47;2.90;;;;;;;;;;2088901;28;20042;-70
2021/05/01 05:13:02;;;;;;;7.18;3.08;;;;;;;;;;2088869;28;20492;-70
2021/05/01 05:14:02;;;;;;;10.65;3.55;;;;;;;;;;2097780;28;20032;-67
2021/05/01 05:15:03;;;;;;;6.28;3.08;;;;;;;;;;2098013;28;20115;-66
2021/05/01 05:16:04;;;;;;;7.25;3.40;;;;;;;;;;2090542;28;20033;-66
2021/05/01 05:17:04;;;;;;;5.82;3.40;;;;;;;;;;2098048;28;20111;-66
2021/05/01 05:18:04;;;;;;;4.90;3.33;;;;;;;;;;2098195;28;20432;-66
2021/05/01 05:19:05;;;;;;;5.45;3.00;;;;;;;;;;2090272;28;20055;-66
2021/05/01 05:20:06;;;;;;;4.88;3.38;;;;;;;;;;2098149;28;20466;-66
2021/05/01 05:21:06;;;;;;;5.72;3.20;;;;;;;;;;2098146;28;20159;-66
2021/05/01 05:22:06;;;;;;;6.03;3.10;;;;;;;;;;2090254;28;20444;-66
2021/05/01 05:23:07;;;;;;;7.25;3.20;;;;;;;;;;2090453;28;20452;-67
2021/05/01 05:24:07;;;;;;;6.25;3.55;;;;;;;;;;2090632;28;20066;-65
2021/05/01 05:25:08;;;;;;;6.70;3.42;;;;;;;;;;2090377;28;20100;-66
2021/05/01 05:26:08;;;;;;;4.90;3.55;;;;;;;;;;2090612;28;20662;-66
2021/05/01 05:27:09;;;;;;;5.32;3.30;;;;;;;;;;2090377;28;20446;-66
2021/05/01 05:28:09;;;;;;;4.70;3.70;;;;;;;;;;2090485;28;20025;-66
2021/05/01 05:29:11;;;;;;;9.18;3.58;;;;;;;;;;2090217;28;20403;-66
2021/05/01 05:30:11;;;;;;;5.03;3.50;;;;;;;;;;2090539;28;20090;-66
2021/05/01 05:31:12;;;;;;;6.25;3.30;;;;;;;;;;2090313;28;20479;-66
2021/05/01 05:32:12;;;;;;;5.78;3.53;;;;;;;;;;2090557;28;20089;-66
2021/05/01 05:33:13;;;;;;;6.35;3.83;;;;;;;;;;2090484;28;20032;-66
2021/05/01 05:34:13;;;;;;;7.03;3.90;;;;;;;;;;2090273;28;20041;-66
2021/05/01 05:35:13;;;;;;;5.57;3.20;;;;;;;;;;2090120;28;20535;-66
2021/05/01 05:36:13;;;;;;;6.05;3.50;;;;;;;;;;2090273;28;20368;-66
2021/05/01 05:37:15;;;;;;;5.70;3.72;;;;;;;;;;2090186;28;20553;-66
2021/05/01 05:38:15;;;;;;;7.82;3.90;;;;;;;;;;2090427;28;20475;-66
2021/05/01 05:39:16;;;;;;;9.30;3.97;;;;;;;;;;2090288;28;20025;-66
2021/05/01 05:40:16;;;;;;;10.70;4.40;;;;;;;;;;2090464;28;20032;-66
2021/05/01 05:41:16;;;;;;;8.05;4.45;;;;;;;;;;2090251;28;20056;-66
2021/05/01 05:42:17;;;;;;;9.43;4.47;;;;;;;;;;2090506;28;20029;-66
2021/05/01 05:43:18;;;;;;;9.20;4.13;;;;;;;;;;2090201;28;20036;-66
2021/05/01 05:44:18;;;;;;;11.30;4.43;;;;;;;;;;2090061;28;20032;-66
2021/05/01 05:45:41;;;;;;;11.07;5.10;;;;;;;;;;2090184;28;20087;-66
2021/05/01 05:46:39;;;;;;;;;;;;;;;;;;2090676;28;20041;-66
2021/05/01 05:47:39;;;;;;;12.43;5.38;;;;;;;;;;2090332;28;20335;-66
2021/05/01 05:48:40;;;;;;;12.20;5.13;;;;;;;;;;2090298;28;20471;-66
2021/05/01 05:49:40;;;;;;;9.43;5.50;;;;;;;;;;2090062;28;21106;-66
2021/05/01 05:50:41;;;;;;;11.52;5.10;;;;;;;;;;2090421;28;20124;-66
2021/05/01 05:51:41;;;;;;;21.35;7.85;;;;;;;;;;2089807;28;20025;-69
2021/05/01 05:52:41;;;;;;;16.17;6.95;;;;;;;;;;2097862;28;20066;-70
2021/05/01 05:53:42;;;;;;;16.17;6.35;;;;;;;;;;2097883;28;20051;-69
2021/05/01 05:54:42;;;;;;;16.83;6.88;;;;;;;;;;2090311;28;20380;-66
2021/05/01 05:55:45;;;;;;;24.50;7.15;;;;;;;;;;2090121;28;20372;-68
2021/05/01 05:56:45;;;;;;;14.95;6.18;;;;;;;;;;2090157;28;20025;-68
2021/05/01 05:57:50;;;;;;;14.70;6.22;;;;;;;;;;2090234;28;20025;-67
2021/05/01 05:58:50;;;;;;;17.23;6.45;;;;;;;;;;2090061;28;20033;-67
2021/05/01 05:59:50;;;;;;;18.52;6.65;;;;;;;;;;2090335;28;20472;-67
2021/05/01 06:00:51;;;;;;;12.57;6.05;;;;;;;;;;2090237;28;20491;-67
2021/05/01 06:01:52;;;;;;;21.55;6.80;;;;;;;;;;2090315;28;20394;-67
2021/05/01 06:02:53;;;;;;;17.08;7.13;;;;;;;;;;2089581;28;20498;-68
2021/05/01 06:03:54;;;;;;;17.33;7.13;;;;;;;;;;2089522;28;20021;-68
2021/05/01 06:05:10;;;;;;;19.77;6.95;;;;;;;;;;2090095;28;20036;-67